In Rescue
 
Open Full Screen Window  High Contrast Mode
Wind Gusting 00 knots
12
November 29, 2022 7:56 AM CST
Present Weather: Light Snow
Weather Information
Wind Direction
  360 °
Wind Speed
  12 kt (14 mph)
Wind Gust
  00 kt (0 mph)
Altimeter
29.63 in
Visibility
7 SM
Temperature
-02° C
28° F
Dewpoint
-03° C
27° F
Humidity
93%
1hr Rain Fall
00.00 in.
24hr Rain Fall
00.00 in.
Sky Condition
Overcast @ 2,800 ft
Broken @ 800 ft
IFR

METAR KTOB 291356Z AUTO 36012KT 7SM -SN BKN008 OVC028 M02/M03 A2963 RMK AO2

FAA Disclaimer: The data displayed is for advisory purposes only and is not to be used for flight planning or operations.